Tiempo atmosférico en la estación meteorológica de Saelices El Chico, Salamanca (680 m.)



Fecha
DESCASC
Temp. máxima en grados centígrados (hora)
DESCASC
Temp. mínima en grados centígrados (hora)
DESCASC
Temp. media en grados centígrados
DESCASC
Racha de viento máxima en m/sg (hora)
DESCASC
Velocidad máxima media en intervalos de 10 minutos(hora)
DESCASC
Precipitaciones diarias en mm
DESCASC
Precipitaciones de 00:00 a 06:00 en mm
DESCASC
Precipitaciones de 06:00 a 12:00 en mm
DESCASC
Precipitaciones de 12:00 a 18:00 en mm
DESCASC
Precipitaciones de 18:00 a 24:00 en mm
DESCASC
13-10-2019 21 (16:00) 13.4 (05:10) 17.2 13.61 (16:40) 7.78 (15:00) 0 0 0 0 0
12-10-2019 27.2 (17:20) 16.8 (08:00) 22 17.5 (16:10) 9.72 (16:10) 0 0 0 0 0
10-10-2019 27.8 (17:20) 8.7 (00:00) 18.2 6.39 (12:20) 3.89 (02:30) 0 0 0 0 0
09-10-2019 25.1 (17:00) 11 (00:00) 18.1 10 (06:30) 5.28 (06:30) 0 0 0 0 0
08-10-2019 30 (16:40) 9.1 (00:00) 19.6 9.17 (19:30) 5 (19:20) 0 0 0 0 0
07-10-2019 29.9 (16:20) 8.3 (00:00) 19.1 6.67 (16:40) 3.61 (16:40) 0 0 0 0 0
06-10-2019 27.1 (16:50) 6.7 (00:00) 16.9 8.06 (19:10) 4.44 (19:10) 0 0 0 0 0
05-10-2019 24.8 (17:40) 9.6 (05:40) 17.2 6.39 (17:50) 3.33 (17:50) 0 0 0 0 0
04-10-2019 26 (17:30) 10.3 (00:00) 18.2 6.39 (19:20) 3.33 (22:30) 0 0 0 0 0
03-10-2019 26.6 (17:20) 6.3 (00:00) 16.5 9.72 (21:20) 4.72 (21:30) 0 0 0 0 0
02-10-2019 23.2 (17:30) 6.8 (00:00) 15 8.33 (17:10) 3.89 (11:50) 0 0 0 0 0
01-10-2019 24.5 (18:00) 12.9 (00:00) 18.7 11.11 (17:30) 5.83 (17:20) 0 0 0 0 0
30-09-2019 30.3 (17:10) 10 (00:00) 20.1 9.44 (16:40) 5.28 (18:20) 0 0 0 0 0
29-09-2019 29.3 (16:40) 8.3 (00:00) 18.8 6.67 (14:10) 3.61 (19:10) 0 0 0 0 0
28-09-2019 29.3 (17:20) 8.1 (00:00) 18.7 7.22 (16:00) 3.89 (18:50) 0 0 0 0 0
27-09-2019 25.9 (16:40) 7.7 (00:00) 16.8 11.94 (15:40) 4.17 (19:30) 0 0 0 0 0
26-09-2019 27.4 (15:50) 8.3 (00:00) 17.8 8.33 (16:20) 4.17 (16:50) 0 0 0 0 0
25-09-2019 22.8 (17:30) 8.2 (00:00) 15.5 11.11 (12:50) 5.83 (11:30) 0 0 0 0 0
24-09-2019 22.6 (17:30) 8.6 (00:00) 15.6 12.22 (18:20) 7.5 (18:20) 0 0 0 0 0
23-09-2019 24.9 (17:30) 8 (00:00) 16.4 6.94 (18:20) 3.89 (18:20) 0 0 0 0 0
22-09-2019 21 (17:10) 10.1 (00:00) 15.6 11.39 (16:40) 5.83 (15:50) 0.4 0.4 0 0 0
21-09-2019 18.1 (14:00) 14.3 (00:00) 16.2 14.72 (14:10) 8.06 (14:10) 4 0 2 0.4 1.6
20-09-2019 26.3 (17:10) 14.9 (00:00) 20.6 12.22 (18:30) 6.39 (15:10) 0 0 0 0 0
19-09-2019 29.5 (15:50) 12.6 (00:00) 21.1 6.39 (17:20) 3.89 (19:10) 0 0 0 0 0
18-09-2019 28.6 (17:40) 10.8 (00:00) 19.7 6.67 (20:30) 3.61 (20:30) 0 0 0 0 0
17-09-2019 26.1 (13:10) 14.4 (00:00) 20.3 10.83 (18:50) 6.94 (18:50) 8.4 0 0 7.8 0.6
16-09-2019 24.9 (13:40) 15 (00:00) 19.9 8.61 (16:00) 4.72 (16:10) 0.8 0 0 0.4 0.4

Gráficas

Temp. máximas Temp. mínimas Temp. medias Precipitaciones Rachas de viento máximas Velocidades máximas media en intervalos de 10 minutos

Datos horarios

Fecha y hora oficial Temperatura (ºC) Velocidad del viento (km/h) Dirección del viento Racha (km/h) Dirección de racha Precipitación (mm) Presión (hPa) Tendencia (hPa) Humedad (%)
2019-10-15 23:00:00 10.8 5 Este 7 Este 0 942.3 0.4 75
2019-10-15 22:00:00 11.5 3 Noroeste 15 Sudoeste 0 942.1 0.4 71
2019-10-15 21:00:00 12.5 9 Sudoeste 17 Sudoeste 0 942.2 0.6 66
2019-10-15 20:00:00 13.5 6 Sur 12 Sur 0 941.9 0.1 60
2019-10-15 19:00:00 14.6 8 Sudoeste 27 Sudoeste 0 941.7 -0.3 53
2019-10-15 18:00:00 15.9 10 Sur 24 Sudoeste 0 941.6 -0.6 47
2019-10-15 17:00:00 14.9 9 Sudoeste 24 Oeste 0 941.8 -0.9 46
2019-10-15 16:00:00 15.7 12 Sudoeste 25 Sudoeste 0 942 -1 43
2019-10-15 15:00:00 14.4 5 Noroeste 19 Sudoeste 0 942.2 -1.3 51
2019-10-15 14:00:00 15.4 9 Sudoeste 20 Sudoeste 0 942.7 -0.8 50
2019-10-15 13:00:00 13.5 6 Sudoeste 15 Sudoeste 0 943 0.2 59
2019-10-15 12:00:00 12.4 6 Sur 14 Sur 0 943.5 1.2 65
2019-10-15 11:00:00 9.4 5 Este 12 Este 0 943.5 1.1 75
2019-10-15 10:00:00 6.9 7 Este 11 Este 0 942.8 0.6 85
2019-10-15 09:00:00 4.4 8 Este 10 Este 0 942.3 0.3 90
2019-10-15 08:00:00 4.4 5 Este 9 Este 0 942.4 0.9 90
2019-10-15 07:00:00 4.4 6 Este 9 Este 0 942.2 0.6 90
2019-10-15 06:00:00 4.8 6 Sudeste 9 Este 0 942 0.5 89
2019-10-15 05:00:00 5.4 4 Este 9 Sudeste 0 941.5 -0.1 88
2019-10-15 04:00:00 5.1 6 Sudeste 14 Sudeste 0 941.6 0.1 87
2019-10-15 03:00:00 6.4 4 Sudoeste 13 Oeste 0 941.5 0.5 84
2019-10-15 02:00:00 6.8 6 Noroeste 19 Oeste 0 941.6 1.2 80
2019-10-15 01:00:00 6.7 2 Sur 13 Oeste 0 941.5 1.9 80
2019-10-15 00:00:00 7 2 Noroeste 10 Oeste 0 941 1.9 78
2019-10-14 23:00:00 8 9 Sudoeste 18 Oeste 0 940.4 2.5 73
2019-10-14 22:00:00 8.5 12 Oeste 18 Oeste 0 939.6 2.5 72
2019-10-14 21:00:00 9.4 10 Oeste 27 Oeste 0 939.1 3 72
2019-10-14 20:00:00 10.2 15 Oeste 39 Oeste 0 937.9 2.3 66
2019-10-14 19:00:00 11.6 22 Oeste 48 Oeste 0 937.1 2.3 64
2019-10-14 18:00:00 12.6 27 Oeste 45 Oeste 0 936.1 1.5 66
2019-10-14 17:00:00 11.5 21 Oeste 57 Oeste 0.2 935.6 1 73
2019-10-14 16:00:00 12.2 22 Sudoeste 46 Sudoeste 0.4 934.8 -0.1 73
2019-10-14 15:00:00 11.9 11 Sudoeste 22 Sudoeste 0.6 934.6 0.1 86
2019-10-14 14:00:00 11.5 9 Oeste 23 Sur 2.4 934.6 0.6 88
2019-10-14 13:00:00 11.3 12 Sur 41 Sudoeste 0.4 934.9 1.5 86
2019-10-14 12:00:00 12.4 17 Sudoeste 43 Sudoeste 0 934.5 1.9 72
2019-10-14 11:00:00 12.3 18 Sur 28 Sudoeste 0 934 2 77
2019-10-14 10:00:00 11.1 7 Sur 13 Sudeste 0 933.4 1.7 89
2019-10-14 09:00:00 10.3 6 Sur 13 Sudoeste 0.6 932.6 2.5 89
2019-10-14 08:00:00 10.7 9 Sudoeste 36 Oeste 1.8 932 1.2 89
2019-10-14 07:00:00 11.1 25 Oeste 55 Oeste 6.6 931.7 0.5 86
2019-10-14 06:00:00 13.4 4 Sudeste 18 Sudoeste 0 930.1 -1.4 78
2019-10-14 05:00:00 14.1 12 Sudoeste 21 Sudoeste 0 930.8 -1.2 75
2019-10-14 04:00:00 13.7 6 Sudoeste 18 Sudoeste 0 931.2 -1.4 73
2019-10-14 03:00:00 15 13 Sudoeste 22 Sudoeste 0 931.5 -1.6 68
2019-10-14 02:00:00 15.5 13 Sudoeste 23 Sudoeste 0 932 -1.5 63
2019-10-14 01:00:00 15.4 11 Sudeste 20 Sudeste 0 932.6 -1.4 63
2019-10-14 00:00:00 15.8 12 Sur 20 Sur 0 933.1 -1.2 61
2019-10-13 23:00:00 14.5 9 Sudeste 15 Sudeste 0 933.5 -0.9 67
2019-10-13 22:00:00 15.2 9 Sur 20 Sur 0 934 -0.7 65
2019-10-13 21:00:00 16.1 10 Sur 15 Sur 0 934.3 -0.5 61
2019-10-13 20:00:00 17.7 11 Sudoeste 27 Sudoeste 0 934.4 -0.8 55
2019-10-13 19:00:00 19.4 17 Sur 44 Sur 0 934.7 -1.1 49
2019-10-13 18:00:00 20.3 22 Sur 42 Sur 0 934.8 -1.3 44
2019-10-13 17:00:00 20 23 Sur 49 Sur 0 935.2 -1.7 47
2019-10-13 16:00:00 21 22 Sur 48 Sur 0 935.8 -1.2 45
2019-10-13 15:00:00 19.8 28 Sur 46 Sudoeste 0 936.1 -0.9 50
2019-10-13 14:00:00 18.5 22 Sur 43 Sur 0 936.9 -0.1 54
2019-10-13 13:00:00 17.4 25 Sur 40 Sudoeste 0 937 0.2 59
2019-10-13 12:00:00 17 22 Sur 45 Sur 0 937 0.9 62
2019-10-13 11:00:00 15 20 Sudeste 33 Sudeste 0 937 0.7 74
2019-10-13 10:00:00 14.5 18 Sur 38 Sur 0 936.8 0.7 74
2019-10-13 09:00:00 14.2 14 Sur 36 Sur 0 936.1 0.2 72
2019-10-13 08:00:00 14.1 12 Sur 23 Sur 0 936.3 0.7 72
2019-10-13 07:00:00 13.9 12 Sur 26 Sur 0 936.1 0.4 72
2019-10-13 06:00:00 13.7 3 Sur 18 Sudoeste 0 935.9 0.2 75
2019-10-13 05:00:00 13.5 5 Sudoeste 15 Sur 0 935.6 -0.2 76
2019-10-13 04:00:00 14.7 11 Sur 27 Sur 0 935.7 -0.1 74
2019-10-13 03:00:00 14.6 9 Sur 17 Sur 0 935.7 0.1 76
2019-10-13 02:00:00 14.6 6 Sur 12 Sur 0 935.8 0.4 77
2019-10-13 01:00:00 16 7 Sudoeste 22 Sudoeste 0 935.8 0.9 74
2019-10-13 00:00:00 17.5 14 Sudoeste 35 Sudoeste 0 935.6 1.1 69
2019-10-12 23:00:00 18.9 17 Sudoeste 35 Sudoeste 0 935.4 1.2 69
2019-10-12 22:00:00 20.7 17 Sudoeste 41 Sudoeste 0 934.9 0.8 59
2019-10-12 21:00:00 22.5 16 Sur 40 Sudoeste 0 934.5 0.4 36
2019-10-12 20:00:00 23.8 23 Sur 51 Sur 0 934.2 -0.2 32
2019-10-12 19:00:00 24.8 27 Sur 62 Sur 0 934.1 -0.5 30
2019-10-12 18:00:00 26.5 31 Sur 59 Sudoeste 0 934.1 -1.4 25
2019-10-12 17:00:00 26.7 32 Sur 63 Sur 0 934.4 -2 28
2019-10-12 16:00:00 26.5 28 Sur 59 Sur 0 934.6 -2.6 29
2019-10-12 15:00:00 26.1 28 Sur 50 Sur 0 935.5 -1.8 31
2019-10-12 14:00:00 25.2 24 Sur 41 Sur 0 936.4 -0.6 35
2019-10-12 13:00:00 23.3 21 Sur 43 Sur 0 937.2 0.5 41
2019-10-12 12:00:00 22.1 22 Sur 43 Sudoeste 0 937.3 0.5 45
2019-10-12 11:00:00 22.6 20 Sur 37 Sur 0 937 0.1 43
2019-10-12 10:00:00 18.8 9 Sur 19 Sur 0 936.7 -0.2 62
2019-10-12 09:00:00 16.8 0 Calma 10 Sur 0 936.8 -0.1 70
2019-10-12 08:00:00 16.8 2 Norte 16 Sudoeste 0 936.9 0 69
2019-10-12 07:00:00 17.8 8 Sur 18 Sudoeste 0 936.9 -0.5 65
2019-10-12 06:00:00 17.8 4 Sur 14 Sur 0 936.9 -1 64
2019-10-12 05:00:00 17.2 9 Sudeste 13 Este 0 936.9 -1.3 65
2019-10-12 04:00:00 18.4 0 Calma 16 Sur 0 937.4 -0.9 60
2019-10-12 03:00:00 18.4 9 Sur 15 Sur 0 937.9 -0.5 57
2019-10-12 02:00:00 18.7 3 Este 8 Sur 0 938.2 -0.3 52
2019-10-12 01:00:00 18.9 6 Sur 17 Sudeste 0 938.3 0.2 50
2019-10-12 00:00:00 18.6 9 Sur 15 Sur 0 938.4 0.4 50
2019-10-11 23:00:00 18.8 9 Sudeste 16 Sur 0 938.5 0.7 51
2019-10-11 22:00:00 19.2 11 Sur 18 Sudoeste 0 938.1 0.1 52
2019-10-11 21:00:00 21.2 10 Sur 19 Sur 0 938 -0.1 47
2019-10-11 20:00:00 22.8 9 Sur 28 Sur 0 937.8 -0.6 42
2019-10-11 19:00:00 24.7 15 Sur 31 Sur 0 938 -0.7 37
2019-10-11 18:00:00 25.7 15 Sur 37 Sur 0 938.1 -1.3 34
2019-10-11 17:00:00 26.4 17 Sur 41 Sur 0 938.4 -1.9 35
2019-10-11 16:00:00 26.9 19 Sur 36 Sudeste 0 938.7 -2.4 31
2019-10-11 15:00:00 27.4 19 Sur 36 Sur 0 939.4 -1.8 31
2019-10-11 14:00:00 25.8 15 Sur 31 Sudeste 0 940.3 -1.2 34
2019-10-11 13:00:00 24.8 18 Sur 34 Sur 0 941.1 -0.2 38
2019-10-11 12:00:00 24.4 14 Sur 28 Sur 0 941.2 0.4 41
2019-10-11 11:00:00 19.2 3 Sur 9 Sudeste 0 941.5 0.8 48
2019-10-11 10:00:00 13.7 4 Sudeste 13 Este 0 941.3 1 62
2019-10-11 09:00:00 9.5 6 Sudeste 10 Sudeste 0 940.8 0.5 75
2019-10-11 08:00:00 9.5 2 Sur 5 Sudeste 0 940.7 0.4 75
2019-10-11 07:00:00 9.8 5 Sudeste 9 Sudeste 0 940.3 -0.3 72
2019-10-11 06:00:00 10 3 Sudeste 9 Sudeste 0 940.3 -0.4 71
2019-10-11 05:00:00 10 8 Sudeste 10 Sudeste 0 940.3 -0.6 68
2019-10-11 04:00:00 11.7 5 Sudeste 8 Sudeste 0 940.6 -0.3 63
2019-10-11 03:00:00 12.5 4 Este 8 Este 0 940.7 -0.3 60
2019-10-11 02:00:00 12.1 4 Este 10 Este 0 940.9 0.2 60
2019-10-11 01:00:00 13.9 9 Este 10 Este 0 940.9 0.5 53
2019-10-11 00:00:00 14.7 6 Nordeste 12 Sudeste 0 941 0.8 55
2019-10-10 23:00:00 16.8 7 Sudeste 9 Sudeste 0 940.7 0.8 41
2019-10-10 22:00:00 18.7 4 Sudeste 12 Este 0 940.4 0.6 35
2019-10-10 21:00:00 20 4 Este 14 Sur 0 940.2 0.5 36
2019-10-10 20:00:00 23.8 6 Sur 10 Sur 0 939.9 -0.1 27
2019-10-10 19:00:00 26.7 8 Sudoeste 15 Oeste 0 939.8 -0.6 21
2019-10-10 18:00:00 27.4 5 Noroeste 12 Norte 0 939.7 -1.2 21
2019-10-10 17:00:00 27.1 6 Este 17 Sudeste 0 940 -1.6 22
2019-10-10 16:00:00 26.9 6 Sudeste 17 Nordeste 0 940.4 -1.7 23
2019-10-10 15:00:00 25.4 6 Norte 16 Sudeste 0 940.9 -1.6 25
2019-10-10 14:00:00 23.6 9 Este 23 Este 0 941.6 -1.2 30
2019-10-10 13:00:00 21 12 Nordeste 23 Este 0 942.1 -0.4 36
2019-10-10 12:00:00 18.6 9 Este 17 Este 0 942.5 0.4 43
2019-10-10 11:00:00 14.7 5 Sudeste 15 Nordeste 0 942.8 1.1 54
2019-10-10 10:00:00 12.1 4 Este 10 Nordeste 0 942.5 1.1 61
2019-10-10 09:00:00 9.7 4 Este 16 Nordeste 0 942.1 0.8 71
2019-10-10 08:00:00 9 4 Norte 10 Este 0 941.7 0.6 74
2019-10-10 07:00:00 9 3 Sur 10 Sudoeste 0 941.4 0.3 70
2019-10-10 06:00:00 9.3 4 Sur 15 Nordeste 0 941.3 0.1 67
2019-10-10 05:00:00 9.6 3 Este 14 Este 0 941.1 -0.2 68
2019-10-10 04:00:00 11 2 Oeste 14 Norte 0 941.1 -0.6 62
2019-10-10 03:00:00 11.6 7 Noroeste 22 Norte 0 941.2 -0.4 61
2019-10-10 02:00:00 12.6 13 Norte 20 Norte 0 941.3 -0.3 57
2019-10-10 01:00:00 13.7 7 Noroeste 19 Norte 0 941.7 0.3 52
2019-10-10 00:00:00 14 4 Norte 20 Norte 0 941.6 0.6 50
2019-10-09 23:00:00 14.9 13 Norte 21 Norte 0 941.6 1.1 46
2019-10-09 22:00:00 15.9 15 Norte 22 Norte 0 941.4 1.4 42
2019-10-09 21:00:00 17.2 11 Norte 18 Norte 0 941 1.1 36
2019-10-09 20:00:00 19.9 9 Noroeste 29 Noroeste 0 940.5 0.4 32
2019-10-09 19:00:00 23 14 Norte 30 Norte 0 940 -0.4 27
2019-10-09 18:00:00 24.3 13 Norte 35 Noroeste 0 939.9 -0.9 24
2019-10-09 17:00:00 25 14 Norte 30 Norte 0 940.1 -1.2 28
2019-10-09 16:00:00 24.1 11 Noroeste 28 Norte 0 940.4 -1.3 30
2019-10-09 15:00:00 22.9 13 Norte 29 Norte 0 940.8 -1.2 33
2019-10-09 14:00:00 21.5 12 Norte 24 Noroeste 0 941.3 -1 36
2019-10-09 13:00:00 19.6 13 Noroeste 25 Norte 0 941.7 -0.7 40
2019-10-09 12:00:00 17.7 7 Noroeste 18 Norte 0 942 0.2 43
2019-10-09 11:00:00 15.3 7 Norte 19 Norte 0 942.3 1 52
2019-10-09 10:00:00 12.3 9 Norte 17 Norte 0 942.4 1 63
2019-10-09 09:00:00 11 9 Noroeste 33 Norte 0 941.8 0.9 79
2019-10-09 08:00:00 12.2 7 Noroeste 14 Norte 0 941.3 0.7 78
2019-10-09 07:00:00 14.5 11 Norte 36 Noroeste 0 941.4 1 72
2019-10-09 06:00:00 15.9 9 Noroeste 19 Norte 0 940.9 -0.1 83
2019-10-09 05:00:00 15.3 6 Noroeste 10 Noroeste 0 940.6 -0.5 84
2019-10-09 04:00:00 15.7 4 Oeste 8 Este 0 940.4 -0.7 81
2019-10-09 03:00:00 16.6 6 Oeste 8 Oeste 0 941 -0.1 80
2019-10-09 02:00:00 15.8 5 Noroeste 8 Oeste 0 941.1 0.3 82
2019-10-09 01:00:00 16.9 5 Oeste 8 Oeste 0 941.1 0.8 76
2019-10-09 00:00:00 17.9 4 Sudoeste 14 Noroeste 0 941.1 1.1 73
2019-10-08 23:00:00 19.2 8 Noroeste 18 Noroeste 0 940.8 1.3 68
2019-10-08 22:00:00 20.7 9 Noroeste 22 Noroeste 0 940.3 1.3 59
2019-10-08 21:00:00 22.2 11 Noroeste 26 Norte 0 940 1.1 51
2019-10-08 20:00:00 24.4 15 Noroeste 33 Norte 0 939.5 0.4 43
2019-10-08 19:00:00 27.4 16 Noroeste 30 Oeste 0 939 -0.5 30
2019-10-08 18:00:00 29.5 12 Noroeste 26 Oeste 0 938.9 -1.2 26
2019-10-08 17:00:00 29.7 13 Noroeste 26 Noroeste 0 939.1 -1.7 27
2019-10-08 16:00:00 29.9 6 Oeste 22 Oeste 0 939.5 -2 25
2019-10-08 15:00:00 28 6 Norte 22 Noroeste 0 940.1 -1.9 28
2019-10-08 14:00:00 27.2 6 Oeste 16 Oeste 0 940.8 -1.4 26
2019-10-08 13:00:00 25.4 5 Oeste 12 Sudeste 0 941.5 -0.5 29
2019-10-08 12:00:00 22.3 6 Sudeste 12 Sur 0 942 0.2 38
2019-10-08 11:00:00 18 4 Sudeste 8 Sudeste 0 942.2 0.4 49
2019-10-08 10:00:00 12.9 5 Este 11 Este 0 942 0.5 62
2019-10-08 09:00:00 9.6 9 Sudeste 12 Sudeste 0 941.8 0.6 73
2019-10-08 08:00:00 9.6 2 Sudeste 8 Sudeste 0 941.8 0.3 70
2019-10-08 07:00:00 10.6 6 Este 8 Sudeste 0 941.5 -0.2 67
2019-10-08 06:00:00 10.3 6 Este 12 Sudeste 0 941.2 -0.6 69
2019-10-08 05:00:00 10.8 7 Este 10 Sudeste 0 941.5 -0.4 67
2019-10-08 04:00:00 12.2 4 Sudeste 8 Sudeste 0 941.7 -0.5 63
2019-10-08 03:00:00 12.8 6 Este 7 Este 0 941.8 -0.6 59
2019-10-08 02:00:00 13.6 3 Este 14 Sudeste 0 941.9 -0.3 56
2019-10-08 01:00:00 16 4 Este 9 Este 0 942.2 0.4 46
2019-10-08 00:00:00 16.1 8 Este 10 Este 0 942.4 1 47
2019-10-07 23:00:00 18.9 4 Norte 14 Oeste 0 942.2 1.1 37
2019-10-07 22:00:00 20 10 Noroeste 17 Norte 0 941.8 0.9 34
2019-10-07 21:00:00 22.1 10 Noroeste 16 Noroeste 0 941.4 0.5 31
2019-10-07 20:00:00 24.9 9 Noroeste 22 Noroeste 0 941.1 -0.1 25
2019-10-07 19:00:00 27.8 13 Noroeste 24 Noroeste 0 940.9 -0.6 18
2019-10-07 18:00:00 29.1 11 Norte 22 Norte 0 940.9 -1.1 18
2019-10-07 17:00:00 29.4 12 Norte 24 Norte 0 941.2 -1.6 17
2019-10-07 16:00:00 29.7 7 Noroeste 22 Norte 0 941.5 -1.4 13
2019-10-07 15:00:00 28.2 8 Noroeste 19 Nordeste 0 942 -1.1 12
2019-10-07 14:00:00 26.9 6 Nordeste 14 Nordeste 0 942.8 -0.9 17
2019-10-07 13:00:00 24.2 5 Sudoeste 16 Sudoeste 0 942.9 -0.7 30
2019-10-07 12:00:00 20.5 7 Oeste 14 Oeste 0 943.1 0.1 43
2019-10-07 11:00:00 16.6 2 Nordeste 8 Este 0 943.7 0.8 56
2019-10-07 10:00:00 12.1 4 Este 11 Sudeste 0 943.6 1.2 67
2019-10-07 09:00:00 9.7 5 Sudeste 8 Sudeste 0 943 0.8 73
2019-10-07 08:00:00 8.4 5 Nordeste 9 Sudoeste 0 942.9 0.6 76
2019-10-07 07:00:00 9.3 5 Oeste 7 Oeste 0 942.4 -0.2 72
2019-10-07 06:00:00 10.3 3 Este 10 Este 0 942.2 -1 69
2019-10-07 05:00:00 10.4 6 Sudeste 7 Sudeste 0 942.3 -1.1 64
2019-10-07 04:00:00 11 0 Calma 10 Sudeste 0 942.6 -0.9 62
2019-10-07 03:00:00 11.3 6 Sudeste 8 Este 0 943.2 -0.5 61
2019-10-07 02:00:00 11.2 6 Sudeste 11 Sudeste 0 943.4 0 62
2019-10-07 01:00:00 12.6 6 Este 10 Este 0 943.5 0.5 56
2019-10-07 00:00:00 14.5 4 Norte 8 Noroeste 0 943.7 1.2 50
2019-10-06 23:00:00 15.7 6 Noroeste 9 Oeste 0 943.4 1.1 42
2019-10-06 22:00:00 17.7 0 Calma 11 Nordeste 0 943 0.7 38
2019-10-06 21:00:00 19.7 10 Nordeste 15 Norte 0 942.5 0.5 31
2019-10-06 20:00:00 21.5 9 Noroeste 29 Norte 0 942.3 0.4 25
2019-10-06 19:00:00 24.7 15 Noroeste 28 Norte 0 942.3 0.2 23
2019-10-06 18:00:00 26.4 12 Noroeste 24 Noroeste 0 942 -0.8 21
2019-10-06 17:00:00 26.9 9 Noroeste 20 Norte 0 941.9 -1.5 21
2019-10-06 16:00:00 25.8 4 Noroeste 19 Nordeste 0 942.1 -2 24
2019-10-06 15:00:00 24.2 4 Nordeste 13 Sudoeste 0 942.8 -1.5 33
2019-10-06 14:00:00 21.2 5 Noroeste 14 Este 0 943.4 -0.6 42
2019-10-06 13:00:00 19.9 3 Sur 16 Norte 0 944.1 0.7 51
2019-10-06 12:00:00 17.7 4 Norte 13 Norte 0 944.3 1.5 59
2019-10-06 11:00:00 14.3 2 Oeste 7 Noroeste 0 944 1.6 69
2019-10-06 10:00:00 9.5 0 Calma 6 Este 0 943.4 1.5 81
2019-10-06 09:00:00 7.1 3 Sudeste 9 Este 0 942.8 0.8 87
2019-10-06 08:00:00 6.8 6 Este 9 Sudeste 0 942.4 0.6 86
2019-10-06 07:00:00 6.9 8 Sudeste 10 Este 0 941.9 0 85
2019-10-06 06:00:00 7.3 5 Este 10 Este 0 942 -0.3 85
2019-10-06 05:00:00 8 5 Este 6 Este 0 941.8 0 82
2019-10-06 04:00:00 8.4 6 Sudeste 12 Sudeste 0 941.9 0.2 82
2019-10-06 03:00:00 10 0 Calma 8 Sudeste 0 942.3 0.3 77
2019-10-06 02:00:00 11.2 3 Sudeste 6 Norte 0 941.8 0.3 75
2019-10-06 01:00:00 12.1 0 Calma 9 Noroeste 0 941.7 0.9 73
2019-10-06 00:00:00 13.1 6 Sudeste 13 Noroeste 0 942 1.7 66
2019-10-05 23:00:00 14.8 6 Noroeste 14 Noroeste 0 941.5 1.5 59
2019-10-05 22:00:00 15.3 8 Norte 14 Noroeste 0 940.8 1.1 55
2019-10-05 21:00:00 18.2 8 Noroeste 15 Noroeste 0 940.3 0.9 46
2019-10-05 20:00:00 20.8 7 Noroeste 15 Noroeste 0 940 0.7 32
2019-10-05 19:00:00 23.6 9 Noroeste 22 Oeste 0 939.7 0 26
2019-10-05 18:00:00 24.6 12 Noroeste 23 Noroeste 0 939.4 -0.9 25
2019-10-05 17:00:00 23.6 6 Noroeste 19 Noroeste 0 939.3 -1.8 39
2019-10-05 16:00:00 21.8 8 Oeste 19 Noroeste 0 939.7 -1.5 47
2019-10-05 15:00:00 18.7 9 Noroeste 21 Norte 0 940.3 -0.8 62
2019-10-05 14:00:00 16.4 9 Oeste 18 Oeste 0 941.1 0.4 71
2019-10-05 13:00:00 14 8 Oeste 14 Noroeste 0 941.2 1 84
2019-10-05 12:00:00 13 4 Noroeste 8 Norte 0 941.1 1.3 91
2019-10-05 11:00:00 12.1 2 Sur 7 Norte 0 940.7 1.4 92
2019-10-05 10:00:00 11.6 3 Sudeste 6 Sudeste 0 940.2 1 92
2019-10-05 09:00:00 11 2 Este 8 Oeste 0 939.8 0.5 91
2019-10-05 08:00:00 10.8 3 Oeste 10 Oeste 0 939.3 0 91
2019-10-05 07:00:00 10.2 8 Oeste 13 Noroeste 0 939.2 -0.3 91
2019-10-05 06:00:00 9.6 0 Calma 4 Oeste 0 939.3 -0.6 90
2019-10-05 05:00:00 10.3 0 Calma 6 Sudeste 0 939.3 -0.6 88
2019-10-05 04:00:00 11.6 4 Noroeste 6 Noroeste 0 939.5 -0.6 89
2019-10-05 03:00:00 12.5 5 Noroeste 7 Oeste 0 939.9 -0.1 86
2019-10-05 02:00:00 13.7 4 Oeste 6 Oeste 0 939.9 0.2 84
2019-10-05 01:00:00 14.6 5 Oeste 9 Oeste 0 940.1 0.7 80
2019-10-05 00:00:00 15.6 7 Noroeste 17 Noroeste 0 940 1.1 76
2019-10-04 23:00:00 16.8 9 Noroeste 22 Noroeste 0 939.7 1.1 70
2019-10-04 22:00:00 18.3 8 Noroeste 19 Oeste 0 939.4 1 61
2019-10-04 21:00:00 19.7 8 Noroeste 16 Noroeste 0 938.9 0.5 55
2019-10-04 20:00:00 21.8 11 Noroeste 23 Noroeste 0 938.6 0.1 46
2019-10-04 19:00:00 24.9 11 Oeste 22 Noroeste 0 938.4 -0.9 33
2019-10-04 18:00:00 25.7 8 Oeste 19 Noroeste 0 938.4 -2.1 34
2019-10-04 17:00:00 25.4 6 Sudoeste 22 Oeste 0 938.5 -2.6 36
2019-10-04 16:00:00 25.1 5 Sur 22 Noroeste 0 939.3 -2.1 39
2019-10-04 15:00:00 22.9 6 Noroeste 23 Noroeste 0 940.5 -1.4 49
2019-10-04 14:00:00 21.5 8 Noroeste 16 Noroeste 0 941.1 -0.8 53
2019-10-04 13:00:00 20.1 5 Nordeste 12 Nordeste 0 941.4 -0.2 65
2019-10-04 12:00:00 16.6 6 Este 10 Este 0 941.9 0.5 78
2019-10-04 11:00:00 13.3 5 Sudeste 10 Este 0 941.9 1.1 90
2019-10-04 10:00:00 11.9 6 Sudeste 9 Sudeste 0 941.6 0.8 89
2019-10-04 09:00:00 11.9 3 Sudoeste 7 Noroeste 0 941.4 0.3 86
2019-10-04 08:00:00 11.7 4 Este 9 Este 0 940.8 -0.4 89
2019-10-04 07:00:00 10.3 7 Este 11 Sudeste 0 940.8 -0.6 88
2019-10-04 06:00:00 10.7 2 Este 11 Sudeste 0 941.1 -0.7 86
2019-10-04 05:00:00 11.4 4 Sudeste 10 Sudeste 0 941.2 -0.8 87
2019-10-04 04:00:00 12.3 4 Este 7 Este 0 941.4 -1.2 85
2019-10-04 03:00:00 12.5 4 Nordeste 9 Sudeste 0 941.8 -0.8 84
2019-10-04 02:00:00 13.1 7 Este 9 Sudeste 0 942 -0.1 81
2019-10-04 01:00:00 15.2 2 Este 9 Oeste 0 942.6 0.7 77
2019-10-04 00:00:00 16.4 5 Oeste 18 Noroeste 0 942.6 1.3 71
2019-10-03 23:00:00 17.3 10 Noroeste 31 Noroeste 0 942.1 1.2 67
2019-10-03 22:00:00 18.7 17 Noroeste 35 Oeste 0 941.9 1.4 64
2019-10-03 21:00:00 20 11 Noroeste 26 Oeste 0 941.3 0.6 46
2019-10-03 20:00:00 22.9 10 Oeste 24 Noroeste 0 940.9 -0.2 30
2019-10-03 19:00:00 25.8 8 Noroeste 22 Noroeste 0 940.5 -1.1 25
2019-10-03 18:00:00 26.1 10 Noroeste 30 Noroeste 0 940.7 -1.2 24
2019-10-03 17:00:00 26.3 14 Noroeste 34 Norte 0 941.1 -1.5 12
2019-10-03 16:00:00 25.4 11 Noroeste 28 Norte 0 941.6 -1.4 21
2019-10-03 15:00:00 24.2 11 Noroeste 25 Noroeste 0 941.9 -1.2 25
2019-10-03 14:00:00 22.9 7 Noroeste 21 Noroeste 0 942.6 -0.4 34
2019-10-03 13:00:00 20.4 4 Noroeste 14 Oeste 0 943 0 41
2019-10-03 12:00:00 18 3 Sudoeste 9 Sur 0 943.1 0.3 53
2019-10-03 11:00:00 14 3 Este 11 Sudeste 0 943 0.7 62
2019-10-03 10:00:00 9.6 6 Este 13 Este 0 943 0.7 71
2019-10-03 09:00:00 6.9 7 Este 9 Este 0 942.8 0.8 80
2019-10-03 08:00:00 6.5 8 Este 9 Este 0 942.3 0.7 81
2019-10-03 07:00:00 7.2 6 Sudeste 8 Este 0 942.3 0.6 77
2019-10-03 06:00:00 8.6 6 Este 8 Sudeste 0 942 0 73
2019-10-03 05:00:00 8.2 8 Sudeste 13 Este 0 941.6 -0.2 75
2019-10-03 04:00:00 8.4 8 Este 13 Este 0 941.7 -0.3 75
2019-10-03 03:00:00 10.8 4 Nordeste 10 Norte 0 942 -0.2 63
2019-10-03 02:00:00 11.8 9 Noroeste 13 Noroeste 0 941.8 -0.1 64
2019-10-03 01:00:00 11.8 9 Oeste 14 Oeste 0 942 0.2 60
2019-10-03 00:00:00 13.7 2 Sur 16 Norte 0 942.2 0.7 54
2019-10-02 23:00:00 14.7 12 Norte 15 Norte 0 941.9 0.5 49
2019-10-02 22:00:00 15.1 10 Norte 16 Norte 0 941.8 0.6 47
2019-10-02 21:00:00 16.6 10 Norte 16 Norte 0 941.5 0.6 41
2019-10-02 20:00:00 19.8 9 Noroeste 24 Noroeste 0 941.4 0.3 33
2019-10-02 19:00:00 22.3 10 Noroeste 25 Noroeste 0 941.2 -0.1 29
2019-10-02 18:00:00 22.8 11 Noroeste 30 Norte 0 940.9 -0.7 27
2019-10-02 17:00:00 22.6 14 Norte 29 Noroeste 0 941.1 -0.9 28
2019-10-02 16:00:00 21.9 13 Nordeste 26 Norte 0 941.3 -0.9 30
2019-10-02 15:00:00 20.8 13 Noroeste 27 Norte 0 941.6 -1.1 33
2019-10-02 14:00:00 19.4 9 Noroeste 30 Norte 0 942 -0.6 40
2019-10-02 13:00:00 17.7 12 Norte 26 Norte 0 942.2 -0.1 45
2019-10-02 12:00:00 15.7 14 Norte 26 Norte 0 942.7 1 57
2019-10-02 11:00:00 13.5 9 Norte 19 Norte 0 942.6 1.2 71
2019-10-02 10:00:00 9.3 2 Norte 6 Este 0 942.3 0.8 91
2019-10-02 09:00:00 7.2 4 Este 12 Este 0 941.7 0.4 90
2019-10-02 08:00:00 7.2 5 Sudeste 12 Sudeste 0 941.4 0.2 90
2019-10-02 07:00:00 8.2 3 Sudoeste 9 Sudeste 0 941.5 0.2 89
2019-10-02 06:00:00 9 3 Noroeste 12 Oeste 0 941.3 -0.2 87
2019-10-02 05:00:00 9.9 7 Noroeste 13 Norte 0 941.2 -0.5 87
2019-10-02 04:00:00 10.4 8 Noroeste 13 Noroeste 0 941.3 -0.5 83
2019-10-02 03:00:00 11.7 6 Oeste 17 Noroeste 0 941.5 -0.2 78
2019-10-02 02:00:00 12.6 11 Noroeste 22 Oeste 0 941.7 0.7 76
2019-10-02 01:00:00 13.5 10 Noroeste 20 Noroeste 0 941.8 1.3 72
2019-10-02 00:00:00 14.4 9 Noroeste 24 Oeste 0 941.7 2.3 69
2019-10-01 23:00:00 15.6 10 Noroeste 26 Oeste 0 941 2.3 67
2019-10-01 22:00:00 16.9 5 Noroeste 32 Oeste 0 940.5 2 60
2019-10-01 21:00:00 18.5 17 Oeste 35 Oeste 0 939.4 0.9 51
2019-10-01 20:00:00 20.6 18 Oeste 37 Noroeste 0 938.7 0.1 42
2019-10-01 19:00:00 23.2 16 Oeste 32 Noroeste 0 938.5 -0.3 33
2019-10-01 18:00:00 24 17 Noroeste 40 Oeste 0 938.5 -1 29
2019-10-01 17:00:00 24.1 19 Noroeste 40 Noroeste 0 938.6 -1.7 30
2019-10-01 16:00:00 23 9 Noroeste 28 Noroeste 0 938.8 -1.6 42
2019-10-01 15:00:00 21.2 5 Noroeste 17 Noroeste 0 939.5 -0.7 51
2019-10-01 14:00:00 18.5 7 Noroeste 26 Norte 0 940.3 0.3 65
2019-10-01 13:00:00 18.1 6 Noroeste 28 Noroeste 0 940.4 1 69
2019-10-01 12:00:00 18.7 10 Noroeste 19 Oeste 0 940.2 1.1 62
2019-10-01 11:00:00 17.3 4 Sudoeste 10 Noroeste 0 940 1.5 66
2019-10-01 10:00:00 15 5 Oeste 15 Noroeste 0 939.4 1.3 79
2019-10-01 09:00:00 14 4 Oeste 10 Oeste 0 939.1 1.3 87
2019-10-01 08:00:00 13.9 4 Noroeste 7 Noroeste 0 938.5 0.8 89
2019-10-01 07:00:00 12.9 0 Calma 10 Oeste 0 938.1 -0.1 88
2019-10-01 06:00:00 13.8 0 Calma 13 Oeste 0 937.8 -0.1 88
2019-10-01 05:00:00 14.6 8 Noroeste 23 Oeste 0 937.7 -0.6 86
2019-10-01 04:00:00 14.7 14 Oeste 29 Noroeste 0 938.2 -0.4 88
2019-10-01 03:00:00 14.7 5 Sudeste 11 Oeste 0 937.9 -0.7 86
2019-10-01 02:00:00 15.7 6 Noroeste 12 Noroeste 0 938.3 0.1 84
2019-10-01 01:00:00 16.7 6 Oeste 18 Noroeste 0 938.6 0.5 79
2019-10-01 00:00:00 18.1 13 Noroeste 23 Noroeste 0 938.6 1 75
2019-09-30 23:00:00 19.2 9 Noroeste 19 Noroeste 0 938.2 0.9 67
2019-09-30 22:00:00 21.3 9 Noroeste 21 Oeste 0 938.1 1 53
2019-09-30 21:00:00 23.1 12 Oeste 24 Noroeste 0 937.6 0.3 43
2019-09-30 20:00:00 25.6 12 Sur 28 Sudoeste 0 937.3 -0.4 28
2019-09-30 19:00:00 27.9 17 Sur 31 Sudoeste 0 937.1 -1.1 24
2019-09-30 18:00:00 29.5 15 Sur 33 Sudoeste 0 937.3 -1.5 19
2019-09-30 17:00:00 29.8 16 Sudoeste 34 Sur 0 937.7 -2.1 19
2019-09-30 16:00:00 29.8 15 Sur 29 Sur 0 938.2 -2.2 21
2019-09-30 15:00:00 28.5 9 Sur 21 Sur 0 938.8 -2 28
2019-09-30 14:00:00 27.1 9 Sudoeste 23 Oeste 0 939.8 -1.1 32
2019-09-30 13:00:00 24.5 6 Oeste 15 Oeste 0 940.4 -0.4 40
2019-09-30 12:00:00 20.7 4 Nordeste 10 Nordeste 0 940.8 0.3 55
2019-09-30 11:00:00 17.6 3 Nordeste 8 Este 0 940.9 0.5 61
2019-09-30 10:00:00 13.2 4 Este 9 Este 0 940.8 0.4 74
2019-09-30 09:00:00 10.5 4 Este 7 Sudeste 0 940.5 0 83
2019-09-30 08:00:00 10.1 4 Este 6 Norte 0 940.4 -0.5 84
2019-09-30 07:00:00 10.6 3 Sudeste 10 Este 0 940.4 -0.9 81
2019-09-30 06:00:00 11.2 8 Este 10 Este 0 940.5 -1.4 80
2019-09-30 05:00:00 11.5 7 Este 9 Sudeste 0 940.9 -1.1 78
2019-09-30 04:00:00 12.7 4 Sudeste 5 Sudeste 0 941.3 -0.7 76
2019-09-30 03:00:00 13.6 3 Este 9 Sudeste 0 941.9 0 74
2019-09-30 02:00:00 15.1 4 Noroeste 7 Este 0 942 0.4 67
2019-09-30 01:00:00 16.1 2 Sur 10 Este 0 942 0.7 65
2019-09-30 00:00:00 17.9 3 Norte 21 Noroeste 0 941.9 1.2 59
2019-09-29 23:00:00 18.8 8 Noroeste 24 Noroeste 0 941.6 1.4 52
2019-09-29 22:00:00 20.3 11 Noroeste 24 Noroeste 0 941.3 1.4 42
2019-09-29 21:00:00 21.9 10 Noroeste 20 Noroeste 0 940.7 0.7 37
2019-09-29 20:00:00 25 11 Oeste 22 Noroeste 0 940.2 -0.2 27
2019-09-29 19:00:00 28.1 11 Oeste 21 Noroeste 0 939.9 -0.9 20
2019-09-29 18:00:00 29.3 10 Sudoeste 21 Oeste 0 940 -1.4 19
2019-09-29 17:00:00 28.8 3 Este 18 Oeste 0 940.4 -1.7 19
2019-09-29 16:00:00 28.4 7 Nordeste 19 Norte 0 940.8 -1.7 17
2019-09-29 15:00:00 27.8 7 Noroeste 24 Oeste 0 941.4 -1.1 17
2019-09-29 14:00:00 25.6 8 Norte 21 Noroeste 0 942.1 -0.3 20
2019-09-29 13:00:00 24.3 6 Sudoeste 16 Noroeste 0 942.5 0.9 30
2019-09-29 12:00:00 20.6 5 Oeste 12 Oeste 0 942.5 1.2 46
2019-09-29 11:00:00 17 3 Este 15 Oeste 0 942.4 1.3 56
2019-09-29 10:00:00 12 0 Calma 10 Este 0 941.6 0.7 71
2019-09-29 09:00:00 8.9 5 Sudeste 8 Sudeste 0 941.3 0.5 81
2019-09-29 08:00:00 8.4 3 Sudeste 4 Sudeste 0 941.1 0.2 81
2019-09-29 07:00:00 9 3 Nordeste 9 Sudeste 0 940.9 -0.5 79
2019-09-29 06:00:00 9.7 5 Este 11 Sudeste 0 940.8 -0.7 76
2019-09-29 05:00:00 10.6 8 Sudeste 10 Este 0 940.9 -0.6 71
2019-09-29 04:00:00 11.1 6 Este 10 Sudeste 0 941.4 -0.1 69
2019-09-29 03:00:00 12.1 8 Este 11 Sudeste 0 941.5 0.1 64
2019-09-29 02:00:00 12.7 6 Este 13 Sudeste 0 941.5 0.1 63
2019-09-29 01:00:00 14.9 5 Este 6 Este 0 941.5 0.4 62
2019-09-29 00:00:00 17.3 2 Norte 6 Norte 0 941.4 0.7 52
2019-09-28 23:00:00 18.7 4 Norte 8 Norte 0 941.4 1 44
2019-09-28 22:00:00 20.6 3 Noroeste 17 Sudoeste 0 941.1 0.9 33
2019-09-28 21:00:00 23.3 10 Sur 18 Noroeste 0 940.7 0.6 28
2019-09-28 20:00:00 25.5 7 Sudoeste 24 Sur 0 940.4 -0.1 26
2019-09-28 19:00:00 28.2 11 Sur 23 Sudoeste 0 940.2 -0.9 22
2019-09-28 18:00:00 29.3 10 Oeste 21 Sudoeste 0 940.1 -1.6 22
2019-09-28 17:00:00 29 6 Oeste 18 Noroeste 0 940.5 -2 22
2019-09-28 16:00:00 27.9 10 Oeste 26 Sudoeste 0 941.1 -2 23
2019-09-28 15:00:00 27.2 6 Oeste 17 Sudoeste 0 941.7 -1.8 19
2019-09-28 14:00:00 24.8 6 Noroeste 13 Noroeste 0 942.5 -0.9 28
2019-09-28 13:00:00 21.6 4 Nordeste 10 Este 0 943.1 0 49
2019-09-28 12:00:00 18.2 3 Sudeste 11 Este 0 943.5 0.8 59
2019-09-28 11:00:00 15.2 3 Este 11 Nordeste 0 943.4 1 68
2019-09-28 10:00:00 11.7 2 Nordeste 8 Sudeste 0 943.1 0.8 80
2019-09-28 09:00:00 9.5 0 Calma 8 Sudeste 0 942.7 0.3 90
2019-09-28 08:00:00 8.3 5 Norte 7 Norte 0 942.4 -0.3 90
2019-09-28 07:00:00 9.2 5 Este 7 Sudeste 0 942.3 -0.7 90
2019-09-28 06:00:00 9.1 4 Sudeste 8 Sudeste 0 942.4 -0.7 88
2019-09-28 05:00:00 10.2 4 Sudeste 7 Sudeste 0 942.7 -0.8 86
2019-09-28 04:00:00 10.9 3 Sudeste 4 Sudeste 0 943 -0.7 84
2019-09-28 03:00:00 12 0 Calma 5 Sudeste 0 943.1 -0.5 82
2019-09-28 02:00:00 12.6 3 Este 8 Este 0 943.5 0.3 81
2019-09-28 01:00:00 14 3 Sudeste 6 Sur 0 943.7 0.9 76
2019-09-28 00:00:00 14.7 2 Oeste 15 Noroeste 0 943.6 1.3 73
2019-09-27 23:00:00 15.8 10 Noroeste 24 Noroeste 0 943.2 1.3 70
2019-09-27 22:00:00 17.6 12 Noroeste 30 Norte 0 942.8 1.2 64
2019-09-27 21:00:00 19.3 12 Noroeste 27 Norte 0 942.3 0.7 57
2019-09-27 20:00:00 22.1 13 Noroeste 25 Norte 0 941.9 0.2 44
2019-09-27 19:00:00 24.4 12 Noroeste 29 Noroeste 0 941.6 -0.4 35
2019-09-27 18:00:00 25.3 12 Noroeste 31 Noroeste 0 941.6 -1 31
2019-09-27 17:00:00 25.6 10 Noroeste 38 Norte 0 941.7 -1.4 28
2019-09-27 16:00:00 25.4 8 Noroeste 43 Norte 0 942 -1.3 28
2019-09-27 15:00:00 24.8 10 Noroeste 27 Noroeste 0 942.6 -1.1 27
2019-09-27 14:00:00 23.3 12 Noroeste 23 Noroeste 0 943.1 -0.4 32
2019-09-27 13:00:00 21.7 8 Noroeste 21 Norte 0 943.3 -0.2 35
2019-09-27 12:00:00 19.2 5 Oeste 14 Oeste 0 943.7 0.7 49
2019-09-27 11:00:00 16.1 3 Sudeste 8 Sudeste 0 943.5 1 62
2019-09-27 10:00:00 12.8 0 Calma 5 Sudeste 0 943.5 0.9 72
2019-09-27 09:00:00 8.9 2 Nordeste 9 Este 0 943 0.3 86
2019-09-27 08:00:00 7.7 7 Este 10 Sudeste 0 942.5 -0.3 86
2019-09-27 07:00:00 8.2 4 Sudeste 10 Sudeste 0 942.6 -0.2 84
2019-09-27 06:00:00 8.8 7 Sudeste 9 Sudeste 0 942.7 -0.2 83
2019-09-27 05:00:00 10.1 5 Este 10 Sudeste 0 942.8 -0.1 78
2019-09-27 04:00:00 10.4 5 Sudeste 10 Sudeste 0 942.8 -0.1 75
2019-09-27 03:00:00 11.9 4 Este 9 Sudeste 0 942.9 0.1 69
2019-09-27 02:00:00 12.3 6 Este 11 Este 0 942.9 0.4 66
2019-09-27 01:00:00 13.7 5 Este 8 Sudeste 0 942.9 0.7 62
2019-09-27 00:00:00 15.5 0 Calma 15 Noroeste 0 942.8 1.4 57
2019-09-26 23:00:00 17.4 9 Noroeste 16 Noroeste 0 942.5 1.6 51
2019-09-26 22:00:00 18.7 8 Noroeste 22 Noroeste 0 942.2 1.4 43
2019-09-26 21:00:00 20.7 9 Noroeste 16 Noroeste 0 941.4 0.7 33
2019-09-26 20:00:00 24.1 9 Noroeste 18 Noroeste 0 940.9 -0.1 26
2019-09-26 19:00:00 26.3 10 Oeste 26 Oeste 0 940.8 -0.2 20
2019-09-26 18:00:00 26.8 11 Noroeste 26 Noroeste 0 940.7 -0.7 17
2019-09-26 17:00:00 26.7 13 Noroeste 30 Noroeste 0 941 -0.8 21
2019-09-26 16:00:00 26.9 9 Noroeste 27 Norte 0 941 -1.3 20
2019-09-26 15:00:00 25.8 8 Oeste 22 Noroeste 0 941.4 -1.4 25
2019-09-26 14:00:00 24.2 6 Noroeste 15 Oeste 0 941.8 -0.9 30
2019-09-26 13:00:00 21.9 5 Sudoeste 17 Noroeste 0 942.3 0 45
2019-09-26 12:00:00 18.7 8 Oeste 16 Oeste 0 942.8 0.8 58
2019-09-26 11:00:00 15.5 4 Este 7 Este 0 942.7 0.9 71
2019-09-26 10:00:00 12.1 3 Este 10 Sudeste 0 942.3 0.8 80
2019-09-26 09:00:00 9.4 2 Sudeste 9 Sudeste 0 942 0.4 89
2019-09-26 08:00:00 8.7 5 Sudeste 6 Sudeste 0 941.8 0.2 88
2019-09-26 07:00:00 9.5 2 Este 6 Sur 0 941.5 -0.5 87
2019-09-26 06:00:00 10.1 3 Sudeste 6 Sudeste 0 941.6 -0.5 86
2019-09-26 05:00:00 10.3 5 Este 7 Sudeste 0 941.6 -0.6 85
2019-09-26 04:00:00 10.9 4 Este 9 Sudeste 0 942 -0.2 84
2019-09-26 03:00:00 11.4 4 Este 6 Este 0 942.1 0 80
2019-09-26 02:00:00 12.3 3 Norte 7 Norte 0 942.2 0.4 77
2019-09-26 01:00:00 13.2 4 Noroeste 9 Noroeste 0 942.2 0.8 72
2019-09-26 00:00:00 14.4 6 Noroeste 10 Noroeste 0 942.1 1.1 68
2019-09-25 23:00:00 15.1 7 Noroeste 12 Noroeste 0 941.8 1 63
2019-09-25 22:00:00 16.3 8 Noroeste 16 Noroeste 0 941.4 0.6 58
2019-09-25 21:00:00 17.8 9 Noroeste 17 Norte 0 941 0.1 51
2019-09-25 20:00:00 20 9 Noroeste 22 Oeste 0 940.8 -0.3 43
2019-09-25 19:00:00 21.7 10 Noroeste 23 Noroeste 0 940.8 -0.7 37
2019-09-25 18:00:00 22.2 10 Noroeste 23 Norte 0 940.9 -1 36
2019-09-25 17:00:00 22.5 13 Noroeste 27 Oeste 0 941.1 -1.2 33
2019-09-25 16:00:00 21.6 12 Noroeste 32 Norte 0 941.5 -1.3 35
2019-09-25 15:00:00 20.8 13 Noroeste 33 Oeste 0 941.9 -1.4 39
2019-09-25 14:00:00 19.5 12 Oeste 26 Noroeste 0 942.3 -1 44
2019-09-25 13:00:00 17.9 10 Noroeste 40 Noroeste 0 942.8 0.1 51
2019-09-25 12:00:00 16 13 Noroeste 34 Norte 0 943.3 1.1 59
2019-09-25 11:00:00 14.4 8 Noroeste 21 Norte 0 943.3 1.6 67
2019-09-25 10:00:00 12.4 3 Nordeste 10 Noroeste 0 942.7 1.1 79
2019-09-25 09:00:00 8.8 6 Noroeste 10 Norte 0 942.2 0.3 89
2019-09-25 08:00:00 8.6 4 Noroeste 9 Noroeste 0 941.7 0.1 88
2019-09-25 07:00:00 9.2 4 Noroeste 10 Noroeste 0 941.6 -0.2 88
2019-09-25 06:00:00 9.9 6 Noroeste 10 Norte 0 941.9 -0.2 88
2019-09-25 05:00:00 10.7 8 Oeste 14 Noroeste 0 941.6 -0.4 88
2019-09-25 04:00:00 11.5 10 Noroeste 17 Noroeste 0 941.8 -0.6 88
2019-09-25 03:00:00 10.8 8 Noroeste 13 Noroeste 0 942.1 -0.1 86
2019-09-25 02:00:00 11.8 4 Noroeste 11 Noroeste 0 942 -0.2 81
2019-09-25 01:00:00 12.8 3 Noroeste 9 Noroeste 0 942.4 0.7 77
2019-09-25 00:00:00 14.1 8 Oeste 26 Oeste 0 942.2 0.8 73
2019-09-24 23:00:00 15.1 6 Noroeste 34 Oeste 0 942.2 1.2 68
2019-09-24 22:00:00 16.2 16 Oeste 35 Oeste 0 941.7 0.8 64
2019-09-24 21:00:00 16.8 10 Oeste 34 Oeste 0 941.4 0.9 66
2019-09-24 20:00:00 18.5 17 Oeste 37 Oeste 0 941 -0.2 63
2019-09-24 19:00:00 20.7 26 Oeste 44 Oeste 0 940.9 -0.4 55
2019-09-24 18:00:00 21.9 22 Oeste 41 Oeste 0 940.5 -1 53
2019-09-24 17:00:00 20 20 Oeste 39 Oeste 0 941.2 -0.4 65
2019-09-24 16:00:00 20.8 17 Oeste 35 Sudoeste 0 941.3 -0.6 68
2019-09-24 15:00:00 20.4 14 Oeste 29 Oeste 0 941.5 -0.6 71
2019-09-24 14:00:00 21.4 17 Oeste 34 Oeste 0 941.6 -0.5 63
2019-09-24 13:00:00 20.6 4 Este 10 Sudeste 0 941.9 0 58
2019-09-24 12:00:00 18.1 5 Sudeste 12 Sur 0 942.1 0.5 57
2019-09-24 11:00:00 16.6 4 Sudeste 8 Sudeste 0 942.1 0.5 66
2019-09-24 10:00:00 11.9 0 Calma 13 Sudeste 0 941.9 0.5 85
2019-09-24 09:00:00 9.6 8 Sudeste 13 Sudeste 0 941.6 0.3 90
2019-09-24 08:00:00 8.7 3 Norte 9 Sudeste 0 941.6 -0.1 89
2019-09-24 07:00:00 8.7 5 Norte 8 Este 0 941.4 -0.5 89
2019-09-24 06:00:00 9.1 9 Sudeste 11 Sudeste 0 941.3 -0.8 89
2019-09-24 05:00:00 10.4 3 Noroeste 8 Norte 0 941.7 -0.6 88
2019-09-24 04:00:00 11 3 Este 7 Sudeste 0 941.9 -0.8 86
2019-09-24 03:00:00 11.9 0 Calma 6 Nordeste 0 942.1 -0.6 84
2019-09-24 02:00:00 12.6 5 Nordeste 10 Noroeste 0 942.3 -0.5 80
2019-09-24 01:00:00 12.8 5 Noroeste 9 Norte 0 942.7 0 76
2019-09-24 00:00:00 14.1 5 Noroeste 8 Noroeste 0 942.7 0.4 67
2019-09-23 23:00:00 14.8 5 Noroeste 12 Oeste 0 942.8 0.9 64
2019-09-23 22:00:00 16.9 7 Noroeste 9 Noroeste 0 942.7 1.1 56
2019-09-23 21:00:00 18.5 4 Noroeste 18 Noroeste 0 942.3 0.8 50
2019-09-23 20:00:00 20.6 10 Noroeste 23 Oeste 0 941.9 0.5 43
2019-09-23 19:00:00 22.9 12 Noroeste 25 Oeste 0 941.6 -0.2 38
2019-09-23 18:00:00 24.5 10 Oeste 22 Sudoeste 0 941.5 -0.7 30
2019-09-23 17:00:00 24.7 8 Sudoeste 21 Oeste 0 941.4 -1.3 28
2019-09-23 16:00:00 24 10 Sur 21 Sudoeste 0 941.8 -1.3 31
2019-09-23 15:00:00 22.7 10 Sur 23 Sudeste 0 942.2 -1.3 35
2019-09-23 14:00:00 20.9 7 Sudoeste 20 Sudoeste 0 942.7 -0.8 38
2019-09-23 13:00:00 19.2 5 Noroeste 18 Oeste 0 943.1 0.5 47
2019-09-23 12:00:00 16.7 4 Sudoeste 11 Oeste 0 943.5 0.6 60
2019-09-23 11:00:00 14.2 4 Oeste 8 Oeste 0 943.5 1.4 74
2019-09-23 10:00:00 11 2 Este 8 Sudeste 0 942.6 0.5 88
2019-09-23 09:00:00 8.2 2 Este 10 Sudeste 0 942.9 1.4 91
2019-09-23 08:00:00 8.1 7 Sudeste 9 Sudeste 0 942.1 0.7 90
2019-09-23 07:00:00 8.5 0 Calma 6 Noroeste 0 942.1 0.6 90
2019-09-23 06:00:00 8.7 3 Este 11 Sudeste 0 941.5 -0.1 89
2019-09-23 05:00:00 9.1 5 Este 9 Sudeste 0 941.4 0 88
2019-09-23 04:00:00 10.4 4 Sudoeste 9 Oeste 0 941.5 0.1 86
2019-09-23 03:00:00 10.7 5 Nordeste 8 Norte 0 941.6 0.3 85
2019-09-23 02:00:00 11.1 4 Sudeste 8 Noroeste 0 941.4 0.5 82
2019-09-23 01:00:00 12 6 Noroeste 12 Oeste 0 941.4 1.2 79
2019-09-23 00:00:00 12.7 2 Sudoeste 12 Noroeste 0 941.3 1.7 76
2019-09-22 23:00:00 13.7 7 Noroeste 16 Noroeste 0 940.9 1.8 69
2019-09-22 22:00:00 14.8 8 Noroeste 15 Noroeste 0 940.2 1.5 61
2019-09-22 21:00:00 16.3 10 Oeste 19 Oeste 0 939.6 1.1 53
2019-09-22 20:00:00 18.6 10 Oeste 23 Oeste 0 939.1 0.8 43
2019-09-22 19:00:00 19.7 13 Oeste 27 Oeste 0 938.7 0.3 36
2019-09-22 18:00:00 20.5 18 Oeste 34 Oeste 0 938.5 0 32
2019-09-22 17:00:00 20.8 15 Oeste 41 Noroeste 0 938.3 0 34
2019-09-22 16:00:00 20.7 18 Oeste 40 Oeste 0 938.4 -0.2 39
2019-09-22 15:00:00 18.7 15 Noroeste 32 Oeste 0 938.5 0 51
2019-09-22 14:00:00 18.4 10 Oeste 31 Oeste 0 938.3 0.2 54
2019-09-22 13:00:00 16.7 4 Oeste 18 Noroeste 0 938.6 0.9 64
2019-09-22 12:00:00 15.8 6 Oeste 15 Noroeste 0 938.5 1.6 70
2019-09-22 11:00:00 13.4 3 Sur 7 Sudoeste 0 938.1 1.8 83
2019-09-22 10:00:00 11.8 5 Noroeste 8 Norte 0 937.7 2 90
2019-09-22 09:00:00 10.7 3 Sur 12 Sudeste 0 936.9 1.5 91
2019-09-22 08:00:00 10.1 3 Sudeste 10 Oeste 0 936.3 1 91
2019-09-22 07:00:00 10.4 5 Nordeste 10 Este 0 935.7 0.2 91
2019-09-22 06:00:00 10.7 6 Sudeste 10 Este 0 935.4 0.3 90
2019-09-22 05:00:00 11.1 5 Este 10 Sudeste 0 935.3 0.6 90
2019-09-22 04:00:00 11.4 6 Sudeste 9 Sudeste 0 935.5 1.1 89
2019-09-22 03:00:00 12.3 0 Calma 14 Noroeste 0 935.1 1.3 87
2019-09-22 02:00:00 11.8 6 Noroeste 33 Oeste 0 934.7 1.5 87
2019-09-22 01:00:00 12 20 Oeste 35 Oeste 0.4 934.4 1.6 89
2019-09-22 00:00:00 14.3 13 Noroeste 32 Noroeste 0.2 933.8 1.3 85
2019-09-21 23:00:00 16.5 12 Sudoeste 23 Sudoeste 0.6 933.2 0.6 89
2019-09-21 22:00:00 16.6 11 Sur 24 Sudoeste 0 932.8 0.3 87
2019-09-21 21:00:00 16.5 14 Sur 37 Sudoeste 0 932.5 -0.6 86
2019-09-21 20:00:00 16.9 14 Sur 26 Sur 0.6 932.6 -0.6 86
2019-09-21 19:00:00 17 13 Sur 34 Sur 0.2 932.5 -0.6 84
2019-09-21 18:00:00 17.2 21 Sur 42 Sur 0 933.1 -0.5 79
2019-09-21 17:00:00 16.8 18 Sur 43 Sur 0 933.2 -0.6 81
2019-09-21 16:00:00 17.5 24 Sur 46 Sur 0.4 933.1 -1.2 76
2019-09-21 15:00:00 16.7 23 Sur 53 Sur 0 933.6 -0.8 78
2019-09-21 14:00:00 18 27 Sur 47 Sur 0 933.8 -0.5 71
2019-09-21 13:00:00 16.9 22 Sur 45 Sur 0 934.3 0.3 77
2019-09-21 12:00:00 15.6 19 Sur 37 Sur 0 934.4 0.6 81
2019-09-21 11:00:00 15.6 18 Sur 33 Sur 0.2 934.3 0.5 84
2019-09-21 10:00:00 15.1 13 Sur 27 Sudeste 1 934 0.5 86
2019-09-21 09:00:00 15 16 Sudeste 28 Sudeste 0.8 933.8 0 85
2019-09-21 08:00:00 16.1 14 Sur 31 Sur 0 933.8 -0.5 74
2019-09-21 07:00:00 15.6 10 Sur 22 Sur 0 933.5 -1.2 77
2019-09-21 06:00:00 15.8 9 Sur 17 Sur 0 933.8 -1.1 76
2019-09-21 05:00:00 16.5 9 Sur 20 Sudeste 0 934.3 -0.8 72
2019-09-21 04:00:00 16.3 10 Sur 15 Sur 0 934.7 -0.6 72
2019-09-21 03:00:00 15.5 6 Sudeste 13 Sur 0 934.9 -0.3 73
2019-09-21 02:00:00 15.3 7 Sudeste 15 Sudeste 0 935.1 -0.3 71
2019-09-21 01:00:00 15.9 9 Sudeste 19 Sur 0 935.3 -0.2 68
2019-09-21 00:00:00 16.5 7 Sudeste 12 Sur 0 935.2 0.3 68
2019-09-20 23:00:00 18.3 6 Sur 22 Sudoeste 0 935.4 1 61
2019-09-20 22:00:00 19.7 10 Sudoeste 22 Oeste 0 935.5 0.8 57
2019-09-20 21:00:00 20.9 10 Sudoeste 23 Sur 0 934.9 0.5 51
2019-09-20 20:00:00 22.2 15 Sur 33 Sudoeste 0 934.4 -0.2 47
2019-09-20 19:00:00 23.5 19 Sudoeste 44 Sudoeste 0 934.7 -0.4 43
2019-09-20 18:00:00 25.8 19 Sur 42 Sur 0 934.4 -1.1 26
2019-09-20 17:00:00 26.2 18 Sur 40 Sur 0 934.6 -1.4 30
2019-09-20 16:00:00 25.8 17 Sur 40 Sudoeste 0 935.1 -1.6 34
2019-09-20 15:00:00 25.3 22 Sur 39 Sur 0 935.5 -1.7 35
2019-09-20 14:00:00 24.2 13 Sudeste 27 Sudoeste 0 936 -1.1 39
2019-09-20 13:00:00 22.6 15 Sur 30 Sur 0 936.7 -0.2 48
2019-09-20 12:00:00 20.6 14 Sur 27 Sur 0 937.2 0.7 53
2019-09-20 11:00:00 19.2 6 Sudeste 11 Sudeste 0 937.1 0.8 65
2019-09-20 10:00:00 17 6 Este 11 Este 0 936.9 0.9 79
2019-09-20 09:00:00 15.4 6 Este 10 Este 0 936.5 0.5 86
2019-09-20 08:00:00 14.9 4 Sur 11 Este 0 936.3 0.1 86
2019-09-20 07:00:00 15.1 7 Este 9 Este 0 936 -0.7 86
2019-09-20 06:00:00 16 3 Sur 6 Sur 0 936 -1.2 81
2019-09-20 05:00:00 16.6 0 Calma 9 Oeste 0 936.2 -1.4 80
2019-09-20 04:00:00 16.7 3 Norte 6 Norte 0 936.7 -1.2 79
2019-09-20 03:00:00 17 4 Este 8 Este 0 937.2 -0.9 78
2019-09-20 02:00:00 17 5 Sudeste 8 Sudeste 0 937.6 -0.4 76
2019-09-20 01:00:00 17.7 2 Norte 12 Oeste 0 937.9 0.1 72
2019-09-20 00:00:00 18.7 8 Noroeste 17 Noroeste 0 938.1 1.1 68
2019-09-19 23:00:00 19.8 10 Noroeste 17 Noroeste 0 938 1.2 62
2019-09-19 22:00:00 20.8 8 Noroeste 17 Noroeste 0 937.8 1.3 58
2019-09-19 21:00:00 23.8 6 Sur 15 Sudoeste 0 937 0.3 35
2019-09-19 20:00:00 26.2 9 Sudoeste 23 Sudoeste 0 936.8 -0.2 31
2019-09-19 19:00:00 27.6 11 Sudoeste 19 Sudoeste 0 936.5 -1.1 28
2019-09-19 18:00:00 28.2 5 Sudoeste 23 Sur 0 936.7 -1.6 26
2019-09-19 17:00:00 29.2 10 Sudoeste 21 Sudoeste 0 937 -1.8 26
2019-09-19 16:00:00 29.3 7 Sur 20 Sudeste 0 937.6 -1.8 27
2019-09-19 15:00:00 28.6 7 Sur 16 Sudoeste 0 938.3 -1.4 27
2019-09-19 14:00:00 27.1 6 Sudoeste 18 Oeste 0 938.8 -1 34
2019-09-19 13:00:00 24.6 4 Nordeste 10 Este 0 939.4 -0.2 41
2019-09-19 12:00:00 22.2 4 Nordeste 8 Nordeste 0 939.7 0.5 51
2019-09-19 11:00:00 18.4 4 Nordeste 62 Este 0 939.8 0.9 67
2019-09-19 10:00:00 14.3 2 Este 5 Sudeste 0 939.6 0.9 88
2019-09-19 09:00:00 13.5 0 Calma 4 Norte 0 939.2 0.5 90
2019-09-19 08:00:00 12.6 2 Norte 6 Sudoeste 0 938.9 0 89
2019-09-19 07:00:00 13 3 Sur 4 Sur 0 938.7 -0.4 89
2019-09-19 06:00:00 13.5 4 Este 8 Este 0 938.7 -0.7 89
2019-09-19 05:00:00 13.9 5 Sudeste 8 Este 0 938.9 -0.4 87
2019-09-19 04:00:00 13.8 4 Noroeste 9 Sudoeste 0 939.1 -0.3 85
2019-09-19 03:00:00 14.9 4 Noroeste 8 Norte 0 939.4 0.1 83
2019-09-19 02:00:00 15.8 0 Calma 5 Sudoeste 0 939.3 0.1 79
2019-09-19 01:00:00 16.6 4 Sur 9 Sudeste 0 939.4 0.5 76
2019-09-19 00:00:00 17.6 4 Sur 14 Sudeste 0 939.3 0.7 71
2019-09-18 23:00:00 18.2 11 Sudeste 15 Este 0 939.2 0.7 72
2019-09-18 22:00:00 19.7 9 Nordeste 19 Norte 0 938.9 0.8 57
2019-09-18 21:00:00 21.3 11 Noroeste 24 Noroeste 0 938.6 0.7 47
2019-09-18 20:00:00 23.5 6 Sudoeste 19 Sudeste 0 938.5 0.5 43
2019-09-18 19:00:00 25.2 12 Sudeste 24 Sudeste 0 938.1 -0.3 36
2019-09-18 18:00:00 27.6 8 Nordeste 18 Sudoeste 0 937.9 -1 29
2019-09-18 17:00:00 27.8 5 Este 14 Nordeste 0 938 -1.3 29
2019-09-18 16:00:00 27.7 6 Nordeste 16 Nordeste 0 938.4 -1.3 29
2019-09-18 15:00:00 26.8 8 Nordeste 15 Nordeste 0 938.9 -0.8 33
2019-09-18 14:00:00 25.2 4 Norte 15 Oeste 0 939.3 -0.4 40
2019-09-18 13:00:00 22.9 4 Oeste 11 Oeste 0 939.7 0.3 48
2019-09-18 12:00:00 20.4 2 Noroeste 8 Nordeste 0 939.7 0.7 60
2019-09-18 11:00:00 16.6 2 Noroeste 8 Oeste 0 939.7 1.1 79
2019-09-18 10:00:00 14 3 Sudoeste 7 Sudoeste 0 939.4 0.9 88
2019-09-18 09:00:00 12 2 Oeste 8 Sudoeste 0 939 0.8 91
2019-09-18 08:00:00 11.2 3 Sudoeste 10 Sudoeste 0 938.6 0.4 90
2019-09-18 07:00:00 11.8 6 Sudeste 10 Nordeste 0 938.5 0.1 90
2019-09-18 06:00:00 12.3 5 Este 8 Este 0 938.2 -0.4 89
2019-09-18 05:00:00 12.6 4 Nordeste 9 Sudeste 0 938.2 -0.5 89
2019-09-18 04:00:00 13.2 7 Este 11 Este 0 938.4 -0.3 88
2019-09-18 03:00:00 13.7 6 Este 10 Nordeste 0 938.6 -0.4 90
2019-09-18 02:00:00 13.5 5 Sudeste 13 Sudeste 0 938.7 -0.2 89
2019-09-18 01:00:00 14.3 9 Este 19 Norte 0 938.7 0.6 85
2019-09-18 00:00:00 14.7 7 Noroeste 18 Norte 0 939 0.8 83
2019-09-17 23:00:00 14.9 10 Noroeste 25 Noroeste 0 938.9 1.5 85
2019-09-17 22:00:00 15.2 8 Norte 14 Norte 0 938.1 1.1 85
2019-09-17 21:00:00 15.7 6 Noroeste 17 Este 0 938.2 -1.1 81